Time;durP1;ratioP1;P1;durP2;ratioP2;P2;SDS_P1;SDS_P2;PMS_P1;PMS_P2;Temp;Humidity;BMP_temperature;BMP_pressure;BME280_temperature;BME280_humidity;BME280_pressure;Samples;Min_cycle;Max_cycle;Signal;HPM_P1;HPM_P2
2022/01/07 00:01:10;;;;;;;97.28;33.00;;;-0.30;99.90;;;;;;4981903;28;20033;-89
2022/01/07 00:03:36;;;;;;;98.53;33.13;;;-0.30;99.90;;;;;;4981501;28;20030;-89
2022/01/07 00:06:01;;;;;;;105.28;31.65;;;-0.30;99.90;;;;;;4981690;28;20033;-88
2022/01/07 00:08:28;;;;;;;103.78;32.22;;;-0.30;99.90;;;;;;4997214;28;20050;-90
2022/01/07 00:10:55;;;;;;;116.03;32.28;;;-0.30;99.90;;;;;;4981602;28;20033;-90
2022/01/07 00:13:21;;;;;;;101.35;32.72;;;-0.30;99.90;;;;;;4981041;28;20037;-90
2022/01/07 00:15:47;;;;;;;108.32;32.15;;;-0.30;99.90;;;;;;4981737;28;20474;-90
2022/01/07 00:18:13;;;;;;;106.57;31.70;;;-0.30;99.90;;;;;;4997530;28;20034;-90
2022/01/07 00:20:40;;;;;;;89.90;32.25;;;-0.30;99.90;;;;;;4998191;28;20117;-89
2022/01/07 00:23:06;;;;;;;86.68;30.27;;;-0.20;99.90;;;;;;4985513;28;20033;-89
2022/01/07 00:25:32;;;;;;;109.05;30.90;;;-0.20;99.90;;;;;;4985395;28;20473;-90
2022/01/07 00:27:58;;;;;;;119.47;32.42;;;-0.20;99.90;;;;;;4984937;28;20075;-90
2022/01/07 00:30:25;;;;;;;105.70;33.03;;;-0.20;99.90;;;;;;4985607;28;20034;-90
2022/01/07 00:32:52;;;;;;;113.15;34.70;;;-0.20;99.90;;;;;;5001792;28;20033;-89
2022/01/07 00:35:19;;;;;;;114.55;33.63;;;-0.20;99.90;;;;;;5001494;28;20038;-89
2022/01/07 00:37:46;;;;;;;98.63;32.15;;;-0.20;99.90;;;;;;4984824;28;20030;-90
2022/01/07 00:40:16;;;;;;;110.63;32.65;;;-0.20;99.90;;;;;;4985255;28;20033;-90
2022/01/07 00:42:42;;;;;;;95.35;29.55;;;-0.10;99.90;;;;;;5018985;28;20080;-90
2022/01/07 00:45:08;;;;;;;98.70;31.60;;;-0.10;99.90;;;;;;4984935;28;20026;-89
2022/01/07 00:47:34;;;;;;;86.75;29.13;;;-0.10;99.90;;;;;;4985346;28;20124;-89
2022/01/07 00:50:00;;;;;;;102.65;32.35;;;-0.20;99.90;;;;;;5001181;28;20437;-89
2022/01/07 00:52:26;;;;;;;73.65;27.95;;;-0.20;99.90;;;;;;4985212;28;20113;-90
2022/01/07 00:54:52;;;;;;;99.68;29.30;;;-0.30;99.90;;;;;;4984989;28;20061;-89
2022/01/07 00:57:18;;;;;;;93.28;30.52;;;-0.40;99.90;;;;;;4984673;28;20025;-89
2022/01/07 00:59:46;;;;;;;73.95;29.15;;;-0.40;99.90;;;;;;5001002;28;20030;-89
2022/01/07 01:02:13;;;;;;;90.25;29.73;;;-0.40;99.90;;;;;;5000717;28;20385;-89
2022/01/07 01:04:40;;;;;;;76.68;27.83;;;-0.40;99.90;;;;;;4984557;28;20061;-90
2022/01/07 01:07:06;;;;;;;91.70;29.98;;;-0.40;99.90;;;;;;5001166;28;20029;-90
2022/01/07 01:09:31;;;;;;;99.88;30.85;;;-0.40;99.90;;;;;;4984219;28;20026;-88
2022/01/07 01:11:57;;;;;;;105.53;35.92;;;-0.50;99.90;;;;;;4984756;28;20044;-90
2022/01/07 01:14:23;;;;;;;76.80;29.95;;;-0.50;99.90;;;;;;4983650;28;20121;-89
2022/01/07 01:16:51;;;;;;;98.97;33.78;;;-0.50;99.90;;;;;;5000447;28;20495;-90
2022/01/07 01:19:17;;;;;;;87.93;28.08;;;-0.50;99.90;;;;;;4983880;28;20025;-90
2022/01/07 01:21:44;;;;;;;80.22;28.23;;;-0.50;99.90;;;;;;4984324;28;20034;-89
2022/01/07 01:24:10;;;;;;;73.32;25.92;;;-0.50;99.90;;;;;;5017928;28;20157;-90
2022/01/07 01:26:35;;;;;;;66.40;26.40;;;-0.50;99.90;;;;;;4984337;28;20489;-90
2022/01/07 01:29:01;;;;;;;100.53;32.72;;;-0.50;99.90;;;;;;4984144;28;20109;-89
2022/01/07 01:31:30;;;;;;;87.20;29.70;;;-0.50;99.90;;;;;;4984158;28;20064;-90
2022/01/07 01:33:55;;;;;;;95.15;30.50;;;-0.50;99.90;;;;;;4983749;28;20038;-89
2022/01/07 01:36:29;;;;;;;88.70;28.48;;;-0.50;99.90;;;;;;4983657;28;20097;-90
2022/01/07 01:38:55;;;;;;;75.03;25.50;;;-0.50;99.90;;;;;;4984016;28;20041;-90
2022/01/07 01:41:21;;;;;;;69.35;25.40;;;-0.50;99.90;;;;;;4983632;28;20032;-89
2022/01/07 01:43:48;;;;;;;74.50;27.30;;;-0.50;99.90;;;;;;4983273;28;20073;-89
2022/01/07 01:46:16;;;;;;;68.15;28.20;;;-0.50;99.90;;;;;;4984067;28;20045;-90
2022/01/07 01:48:42;;;;;;;85.00;28.63;;;-0.50;99.90;;;;;;4984114;28;20037;-89
2022/01/07 01:51:12;;;;;;;78.40;30.23;;;-0.50;99.90;;;;;;4983697;28;20306;-90
2022/01/07 01:53:56;;;;;;;76.68;29.05;;;-0.50;99.90;;;;;;4983943;28;20042;-89
2022/01/07 01:56:22;;;;;;;64.95;26.90;;;-0.50;99.90;;;;;;4983808;28;20044;-89
2022/01/07 01:58:51;;;;;;;85.32;30.23;;;-0.40;99.90;;;;;;4984087;28;20037;-89
2022/01/07 02:01:16;;;;;;;86.93;30.52;;;-0.40;99.90;;;;;;4999771;28;20026;-89
2022/01/07 02:03:43;;;;;;;76.53;30.92;;;-0.50;99.90;;;;;;4983594;28;20040;-89
2022/01/07 02:06:09;;;;;;;82.60;30.30;;;-0.50;99.90;;;;;;4999610;28;20025;-90
2022/01/07 02:08:36;;;;;;;78.45;29.38;;;-0.50;99.90;;;;;;4983595;28;20485;-89
2022/01/07 02:11:03;;;;;;;73.03;27.50;;;-0.50;99.90;;;;;;4982896;28;20029;-89
2022/01/07 02:13:29;;;;;;;78.55;27.05;;;-0.50;99.90;;;;;;4999455;28;20030;-89
2022/01/07 02:15:55;;;;;;;75.32;28.45;;;-0.50;99.90;;;;;;4983151;28;20042;-89
2022/01/07 02:18:21;;;;;;;60.30;25.13;;;-0.40;99.90;;;;;;4998883;28;20099;-90
2022/01/07 02:20:48;;;;;;;59.33;24.77;;;-0.50;99.90;;;;;;4982123;28;20029;-89
2022/01/07 02:23:16;;;;;;;68.97;26.92;;;-0.40;99.90;;;;;;4982304;28;20029;-89
2022/01/07 02:25:43;;;;;;;67.40;26.30;;;-0.50;99.90;;;;;;4982713;28;20136;-89
2022/01/07 02:28:10;;;;;;;73.53;27.00;;;-0.50;99.90;;;;;;4998864;28;20528;-89
2022/01/07 02:30:35;;;;;;;76.45;26.00;;;-0.50;99.90;;;;;;4982488;28;20072;-89
2022/01/07 02:33:01;;;;;;;64.40;25.83;;;-0.40;99.90;;;;;;4982320;28;20034;-90
2022/01/07 02:35:32;;;;;;;76.13;26.30;;;-0.50;99.90;;;;;;4997947;28;20030;-89
2022/01/07 02:37:58;;;;;;;67.50;27.10;;;-0.50;99.90;;;;;;4982364;28;20410;-90
2022/01/07 02:40:24;;;;;;;66.47;22.35;;;-0.50;99.90;;;;;;4982078;28;20323;-89
2022/01/07 02:42:50;;;;;;;66.45;24.05;;;-0.50;99.90;;;;;;4982400;28;20537;-90
2022/01/07 02:45:16;;;;;;;61.05;22.17;;;-0.50;99.90;;;;;;4981637;28;20084;-89
2022/01/07 02:50:12;;;;;;;65.40;23.25;;;-0.50;99.90;;;;;;4998373;28;20367;-90
2022/01/07 02:52:38;;;;;;;64.68;22.38;;;-0.50;99.90;;;;;;5015803;28;20056;-89
2022/01/07 02:55:05;;;;;;;64.55;25.95;;;-0.50;99.90;;;;;;4998039;28;20034;-89
2022/01/07 02:57:31;;;;;;;75.35;25.83;;;-0.50;99.90;;;;;;4981406;28;20440;-90
2022/01/07 02:59:56;;;;;;;68.05;23.95;;;-0.50;99.90;;;;;;4981916;28;20132;-89
2022/01/07 03:02:22;;;;;;;74.35;23.58;;;-0.40;99.90;;;;;;4982003;28;20028;-90
2022/01/07 03:04:48;;;;;;;79.97;25.17;;;-0.40;99.90;;;;;;4981752;28;20030;-89
2022/01/07 03:07:14;;;;;;;71.63;25.20;;;-0.40;99.90;;;;;;4981659;28;20100;-89
2022/01/07 03:09:39;;;;;;;71.30;27.33;;;-0.50;99.90;;;;;;4982040;28;20029;-89
2022/01/07 03:12:06;;;;;;;69.35;26.30;;;-0.40;99.90;;;;;;5015411;28;20523;-89
2022/01/07 03:14:49;;;;;;;74.82;31.27;;;-0.50;99.90;;;;;;4981570;28;20042;-89
2022/01/07 03:17:15;;;;;;;89.45;31.55;;;-0.50;99.90;;;;;;4997945;28;20034;-89
2022/01/07 03:19:53;;;;;;;71.68;29.20;;;-0.50;99.90;;;;;;4981435;28;20025;-89
2022/01/07 03:22:18;;;;;;;85.82;31.27;;;-0.40;99.90;;;;;;4998421;28;20770;-89
2022/01/07 03:24:44;;;;;;;76.95;30.58;;;-0.50;99.90;;;;;;4998638;28;20026;-89
2022/01/07 03:27:10;;;;;;;79.55;30.30;;;-0.50;99.90;;;;;;4982609;28;20049;-89
2022/01/07 03:29:35;;;;;;;88.25;32.78;;;-0.50;99.90;;;;;;4982601;28;20057;-89
2022/01/07 03:32:01;;;;;;;78.75;26.30;;;-0.50;99.90;;;;;;4982225;28;20038;-89
2022/01/07 03:34:27;;;;;;;85.05;30.13;;;-0.50;99.90;;;;;;4981920;28;20034;-90
2022/01/07 03:36:52;;;;;;;75.50;26.95;;;-0.50;99.90;;;;;;4981874;28;20056;-89
2022/01/07 03:39:18;;;;;;;74.35;27.35;;;-0.50;99.90;;;;;;4981836;28;20108;-89
2022/01/07 03:41:44;;;;;;;71.10;25.50;;;-0.50;99.90;;;;;;4982032;28;20006;-90
2022/01/07 03:44:10;;;;;;;71.82;26.67;;;-0.50;99.90;;;;;;4981416;28;20026;-89
2022/01/07 03:46:36;;;;;;;78.30;26.48;;;-0.50;99.90;;;;;;4981249;28;20116;-89
2022/01/07 03:49:03;;;;;;;72.18;25.63;;;-0.60;99.90;;;;;;4997713;28;20029;-89
2022/01/07 03:51:28;;;;;;;76.90;25.48;;;-0.60;99.90;;;;;;4998044;28;20088;-89
2022/01/07 03:53:54;;;;;;;63.40;24.83;;;-0.50;99.90;;;;;;4982107;28;20038;-89
2022/01/07 03:56:20;;;;;;;60.47;25.42;;;-0.60;99.90;;;;;;4981123;28;20121;-89
2022/01/07 03:58:47;;;;;;;59.33;24.15;;;-0.60;99.90;;;;;;5015371;28;20030;-88
2022/01/07 04:01:12;;;;;;;56.50;23.02;;;-0.60;99.90;;;;;;4997768;28;20034;-90
2022/01/07 04:03:57;;;;;;;66.30;25.25;;;-0.60;99.90;;;;;;4981331;28;20861;-90
2022/01/07 04:06:23;;;;;;;57.63;23.38;;;-0.60;99.90;;;;;;5015361;28;20033;-89
2022/01/07 04:08:49;;;;;;;53.33;24.33;;;-0.60;99.90;;;;;;4997447;28;20500;-90
2022/01/07 04:11:16;;;;;;;62.33;24.27;;;-0.70;99.90;;;;;;4981540;28;20056;-89
2022/01/07 04:13:42;;;;;;;56.97;24.88;;;-0.70;99.90;;;;;;4981654;28;20065;-89
2022/01/07 04:16:08;;;;;;;63.95;24.63;;;-0.70;99.90;;;;;;4981447;28;20060;-89
2022/01/07 04:18:33;;;;;;;67.07;23.23;;;-0.70;99.90;;;;;;4981408;28;20030;-89
2022/01/07 04:20:59;;;;;;;55.15;21.70;;;-0.70;99.90;;;;;;4997971;28;20416;-89
2022/01/07 04:23:25;;;;;;;49.25;21.67;;;-0.70;99.90;;;;;;4981369;28;20033;-90
2022/01/07 04:25:50;;;;;;;57.60;24.30;;;-0.80;99.90;;;;;;4981442;28;20040;-89
2022/01/07 04:28:16;;;;;;;56.40;23.92;;;-0.70;99.90;;;;;;4996916;28;20030;-89
2022/01/07 04:30:44;;;;;;;45.80;20.98;;;-0.80;99.90;;;;;;4981941;28;20038;-90
2022/01/07 04:33:13;;;;;;;53.70;23.15;;;-0.80;99.90;;;;;;4981333;28;20045;-89
2022/01/07 04:35:39;;;;;;;54.67;23.90;;;-0.80;99.90;;;;;;4997752;28;20045;-89
2022/01/07 04:38:06;;;;;;;48.63;23.33;;;-0.80;99.90;;;;;;4997651;28;20037;-88
2022/01/07 04:40:32;;;;;;;53.78;24.15;;;-0.90;99.90;;;;;;4997453;28;20041;-89
2022/01/07 04:42:59;;;;;;;63.55;25.65;;;-0.90;99.90;;;;;;4981309;28;20092;-89
2022/01/07 04:45:26;;;;;;;66.15;26.75;;;-0.90;99.90;;;;;;4981074;28;20030;-89
2022/01/07 04:47:51;;;;;;;66.15;27.10;;;-0.90;99.90;;;;;;4981356;28;20030;-89
2022/01/07 04:50:20;;;;;;;79.00;28.35;;;-0.90;99.90;;;;;;4981274;28;20088;-89
2022/01/07 04:52:47;;;;;;;63.13;26.58;;;-0.90;99.90;;;;;;4981057;28;20568;-89
2022/01/07 04:55:18;;;;;;;59.38;27.48;;;-0.90;99.90;;;;;;4997660;28;20509;-88
2022/01/07 04:57:45;;;;;;;75.43;29.33;;;-0.90;99.90;;;;;;4997225;28;20038;-89
2022/01/07 05:00:12;;;;;;;80.25;28.02;;;-0.90;99.90;;;;;;4980865;28;20022;-89
2022/01/07 05:02:37;;;;;;;66.53;27.55;;;-0.90;99.90;;;;;;4980965;28;20032;-89
2022/01/07 05:05:03;;;;;;;61.10;26.73;;;-0.90;99.90;;;;;;4981271;28;20021;-89
2022/01/07 05:07:29;;;;;;;77.53;28.70;;;-0.90;99.90;;;;;;4997836;28;20478;-89
2022/01/07 05:09:55;;;;;;;73.45;28.90;;;-0.90;99.90;;;;;;4984867;28;20120;-89
2022/01/07 05:12:20;;;;;;;83.20;28.33;;;-0.80;99.90;;;;;;4984479;28;20045;-90
2022/01/07 05:14:46;;;;;;;78.70;31.70;;;-0.80;99.90;;;;;;4984448;28;20501;-88
2022/01/07 05:17:12;;;;;;;74.88;30.75;;;-0.80;99.90;;;;;;4984430;28;20042;-88
2022/01/07 05:19:38;;;;;;;77.45;31.23;;;-0.80;99.90;;;;;;4984344;28;20052;-88
2022/01/07 05:22:04;;;;;;;76.75;31.17;;;-0.70;99.90;;;;;;5000833;28;20109;-88
2022/01/07 05:24:29;;;;;;;77.15;30.20;;;-0.70;99.90;;;;;;5000390;28;20034;-89
2022/01/07 05:26:55;;;;;;;82.38;30.70;;;-0.70;99.90;;;;;;4984213;28;20490;-89
2022/01/07 05:29:21;;;;;;;75.60;30.20;;;-0.70;99.90;;;;;;5000580;28;20038;-89
2022/01/07 05:31:46;;;;;;;79.97;29.88;;;-0.70;99.90;;;;;;4999993;28;20393;-88
2022/01/07 05:34:12;;;;;;;66.70;28.95;;;-0.70;99.90;;;;;;4984936;28;20033;-90
2022/01/07 05:36:38;;;;;;;75.65;30.73;;;-0.70;99.90;;;;;;4984158;28;20041;-88
2022/01/07 05:39:05;;;;;;;72.65;29.05;;;-0.70;99.90;;;;;;4984371;28;20054;-89
2022/01/07 05:41:32;;;;;;;74.18;32.85;;;-0.70;99.90;;;;;;4984033;28;20026;-89
2022/01/07 05:43:58;;;;;;;76.10;29.70;;;-0.70;99.90;;;;;;4982724;28;20049;-90
2022/01/07 05:46:24;;;;;;;67.82;28.30;;;-0.70;99.90;;;;;;4983622;28;20029;-88
2022/01/07 05:48:50;;;;;;;64.22;27.52;;;-0.70;99.90;;;;;;4999885;28;20091;-88
2022/01/07 05:51:15;;;;;;;70.32;27.50;;;-0.70;99.90;;;;;;5000061;28;20042;-89
2022/01/07 05:53:42;;;;;;;75.70;27.75;;;-0.70;99.90;;;;;;4983829;28;20696;-89
2022/01/07 05:56:08;;;;;;;74.75;26.55;;;-0.70;99.90;;;;;;4983919;28;20124;-88
2022/01/07 05:58:34;;;;;;;78.00;26.40;;;-0.70;99.90;;;;;;4983278;28;20033;-89
2022/01/07 06:01:00;;;;;;;75.63;27.75;;;-0.70;99.90;;;;;;4983307;28;20037;-89
2022/01/07 06:03:26;;;;;;;64.22;27.90;;;-0.70;99.90;;;;;;4983481;28;20085;-90
2022/01/07 06:05:52;;;;;;;68.63;27.15;;;-0.70;99.90;;;;;;4999935;28;20053;-89
2022/01/07 06:08:18;;;;;;;69.68;27.73;;;-0.80;99.90;;;;;;4999564;28;20033;-89
2022/01/07 06:10:44;;;;;;;66.00;26.52;;;-0.70;99.90;;;;;;4982725;28;20033;-88
2022/01/07 06:13:10;;;;;;;66.35;26.80;;;-0.80;99.90;;;;;;4999349;28;20030;-88
2022/01/07 06:15:36;;;;;;;67.30;27.88;;;-0.80;99.90;;;;;;4999438;28;20049;-90
2022/01/07 06:18:14;;;;;;;69.28;27.20;;;-0.80;99.90;;;;;;4999089;28;20686;-89
2022/01/07 06:20:39;;;;;;;61.58;27.10;;;-0.80;99.90;;;;;;5016858;28;20030;-89
2022/01/07 06:23:05;;;;;;;58.85;26.67;;;-0.80;99.90;;;;;;4982775;28;20168;-89
2022/01/07 06:25:31;;;;;;;60.10;28.42;;;-0.80;99.90;;;;;;4999948;28;20101;-89
2022/01/07 06:27:56;;;;;;;64.05;26.92;;;-0.80;99.90;;;;;;5017837;28;20041;-89
2022/01/07 06:30:22;;;;;;;76.03;27.98;;;-0.80;99.90;;;;;;4983639;28;20021;-89
2022/01/07 06:32:48;;;;;;;62.58;26.05;;;-0.80;99.90;;;;;;4983533;28;20040;-89
2022/01/07 06:35:14;;;;;;;68.88;28.02;;;-0.80;99.90;;;;;;5017160;28;20117;-89
2022/01/07 06:37:40;;;;;;;76.38;28.83;;;-0.80;99.90;;;;;;4999541;28;20030;-88
2022/01/07 06:40:06;;;;;;;73.53;27.55;;;-0.80;99.90;;;;;;4983254;28;20371;-89
2022/01/07 06:42:32;;;;;;;60.03;27.83;;;-0.80;99.90;;;;;;4982954;28;20029;-90
2022/01/07 06:44:58;;;;;;;65.53;29.55;;;-0.80;99.90;;;;;;4982666;28;20030;-89
2022/01/07 06:47:24;;;;;;;72.90;26.38;;;-0.90;99.90;;;;;;4999169;28;20083;-88
2022/01/07 06:49:50;;;;;;;69.28;28.35;;;-0.90;99.90;;;;;;4982748;28;20034;-89
2022/01/07 06:52:25;;;;;;;58.08;26.65;;;-0.90;99.90;;;;;;4982540;28;20021;-89
2022/01/07 06:54:51;;;;;;;64.60;28.52;;;-0.90;99.90;;;;;;4998937;28;20025;-89
2022/01/07 06:57:17;;;;;;;67.20;27.13;;;-1.00;99.90;;;;;;4981961;28;20474;-89
2022/01/07 06:59:45;;;;;;;79.15;26.40;;;-1.00;99.90;;;;;;5015384;28;20022;-88
2022/01/07 07:02:12;;;;;;;64.32;24.05;;;-1.00;99.90;;;;;;4998315;28;20049;-89
2022/01/07 07:04:38;;;;;;;58.33;25.02;;;-1.00;99.90;;;;;;4982135;28;20080;-89
2022/01/07 07:07:04;;;;;;;56.33;22.30;;;-1.00;99.90;;;;;;4982175;28;20037;-90
2022/01/07 07:09:29;;;;;;;60.35;23.83;;;-1.00;99.90;;;;;;5016220;28;20372;-89
2022/01/07 07:11:55;;;;;;;53.78;25.65;;;-1.00;99.90;;;;;;4997772;28;20112;-89
2022/01/07 07:14:52;;;;;;;52.67;22.30;;;-1.00;99.90;;;;;;4981744;28;20120;-88
2022/01/07 07:17:18;;;;;;;77.13;26.00;;;-1.00;99.90;;;;;;4998189;28;20259;-89
2022/01/07 07:19:44;;;;;;;56.63;23.42;;;-1.00;99.90;;;;;;5000531;28;20457;-89
2022/01/07 07:22:09;;;;;;;50.85;23.15;;;-1.00;99.90;;;;;;4982009;28;20037;-88
2022/01/07 07:24:36;;;;;;;59.45;23.02;;;-1.00;99.90;;;;;;4997563;28;20045;-87
2022/01/07 07:27:02;;;;;;;62.03;24.17;;;-1.10;99.90;;;;;;4999911;28;20049;-88
2022/01/07 07:29:27;;;;;;;54.83;22.70;;;-1.10;99.90;;;;;;4981798;28;20026;-88
2022/01/07 07:31:56;;;;;;;50.00;24.02;;;-1.00;99.90;;;;;;4982120;28;20026;-86
2022/01/07 07:34:44;;;;;;;50.13;22.23;;;-1.10;99.90;;;;;;4985519;28;20485;-87
2022/01/07 07:37:13;;;;;;;58.47;23.20;;;-1.10;99.90;;;;;;4983335;28;20049;-88
2022/01/07 07:39:40;;;;;;;54.25;22.75;;;-1.10;99.90;;;;;;4999649;28;20038;-87
2022/01/07 07:42:06;;;;;;;53.78;21.83;;;-1.10;99.90;;;;;;4982176;28;20057;-87
2022/01/07 07:44:32;;;;;;;62.90;24.17;;;-1.10;99.90;;;;;;4997711;28;20088;-87
2022/01/07 07:46:58;;;;;;;49.75;21.63;;;-1.10;99.90;;;;;;4983124;28;20473;-86
2022/01/07 07:49:24;;;;;;;55.80;21.23;;;-1.10;99.90;;;;;;5015456;28;20385;-86
2022/01/07 07:51:51;;;;;;;50.80;19.75;;;-1.10;99.90;;;;;;4981286;28;20500;-87
2022/01/07 07:54:18;;;;;;;52.25;23.42;;;-1.10;99.90;;;;;;4981108;28;20029;-87
2022/01/07 07:56:43;;;;;;;62.78;23.52;;;-1.10;99.90;;;;;;4999435;28;20124;-87
2022/01/07 07:59:11;;;;;;;54.25;22.60;;;-1.10;99.90;;;;;;4998178;28;20053;-88
2022/01/07 08:01:37;;;;;;;57.53;23.17;;;-1.10;99.90;;;;;;4981529;28;20034;-86
2022/01/07 08:04:04;;;;;;;44.58;20.08;;;-1.10;99.90;;;;;;4997151;28;20045;-87
2022/01/07 08:06:30;;;;;;;47.13;18.42;;;-1.00;99.90;;;;;;4980879;28;20061;-87
2022/01/07 08:08:56;;;;;;;52.63;18.42;;;-1.00;99.90;;;;;;4981775;28;20105;-87
2022/01/07 08:11:24;;;;;;;39.97;17.02;;;-0.90;99.90;;;;;;4980481;28;20057;-85
2022/01/07 08:16:51;;;;;;;44.65;17.13;;;-0.90;99.90;;;;;;4934414;29;20050;-86
2022/01/07 08:19:16;;;;;;;45.08;17.27;;;-0.80;99.90;;;;;;4967756;28;20030;-87
2022/01/07 08:21:43;;;;;;;36.30;16.83;;;-0.80;99.90;;;;;;4979525;28;20018;-86
2022/01/07 08:24:08;;;;;;;36.47;16.85;;;-0.80;99.90;;;;;;4979815;28;20441;-86
2022/01/07 08:26:34;;;;;;;29.25;14.50;;;-0.80;99.90;;;;;;5013889;28;20041;-87
2022/01/07 08:29:05;;;;;;;38.20;14.32;;;-0.70;99.90;;;;;;4996595;28;20546;-86
2022/01/07 08:36:41;;;;;;;33.67;14.20;;;-0.70;99.90;;;;;;4996344;28;20080;-87
2022/01/07 08:39:12;;;;;;;36.42;13.52;;;-0.70;99.90;;;;;;4980172;28;20062;-86
2022/01/07 08:41:38;;;;;;;25.80;13.85;;;-0.70;99.90;;;;;;5013966;28;20387;-86
2022/01/07 08:44:05;;;;;;;31.00;14.07;;;-0.60;99.90;;;;;;4983722;28;20557;-86
2022/01/07 08:46:31;;;;;;;28.42;13.52;;;-0.70;99.90;;;;;;4985889;28;20041;-87
2022/01/07 08:48:57;;;;;;;43.15;15.63;;;-0.60;99.90;;;;;;4983898;28;20553;-87
2022/01/07 08:51:23;;;;;;;33.90;14.55;;;-0.60;99.90;;;;;;4985413;28;20038;-86
2022/01/07 08:53:49;;;;;;;33.63;12.68;;;-0.50;99.90;;;;;;4983472;28;20034;-87
2022/01/07 08:56:23;;;;;;;29.20;13.98;;;-0.50;99.90;;;;;;5016794;28;20034;-86
2022/01/07 08:58:53;;;;;;;27.23;13.25;;;-0.50;99.90;;;;;;4983672;28;20026;-87
2022/01/07 09:01:20;;;;;;;33.03;13.02;;;-0.50;99.90;;;;;;4999743;28;20029;-87
2022/01/07 09:03:45;;;;;;;26.85;14.40;;;-0.60;99.90;;;;;;5017392;28;20075;-87
2022/01/07 09:06:11;;;;;;;31.40;15.50;;;-0.60;99.90;;;;;;4983597;28;20033;-86
2022/01/07 09:08:56;;;;;;;39.33;15.02;;;-0.70;99.90;;;;;;4983558;28;20836;-86
2022/01/07 09:11:22;;;;;;;33.70;15.93;;;-0.80;99.90;;;;;;4983417;28;20026;-86
2022/01/07 09:13:48;;;;;;;44.88;15.63;;;-0.80;99.90;;;;;;4982955;28;20393;-85
2022/01/07 09:16:14;;;;;;;41.00;16.17;;;-0.70;99.90;;;;;;5001630;28;20366;-86
2022/01/07 09:19:08;;;;;;;54.58;19.83;;;-0.70;99.90;;;;;;4983922;28;20095;-87
2022/01/07 09:21:34;;;;;;;42.83;17.92;;;-0.70;99.90;;;;;;4983326;28;20034;-86
2022/01/07 09:23:59;;;;;;;47.17;18.08;;;-0.90;99.90;;;;;;4999538;28;20030;-87
2022/01/07 09:26:25;;;;;;;35.30;15.70;;;-0.90;99.90;;;;;;4999595;28;20033;-86
2022/01/07 09:28:51;;;;;;;36.80;16.48;;;-1.00;99.90;;;;;;4999326;28;20036;-86
2022/01/07 09:31:17;;;;;;;35.58;15.07;;;-1.00;99.90;;;;;;5016620;28;20025;-86
2022/01/07 09:33:43;;;;;;;33.70;16.35;;;-1.00;99.90;;;;;;4999197;28;20179;-86
2022/01/07 09:36:09;;;;;;;36.53;15.20;;;-1.00;99.90;;;;;;4999087;28;20116;-86
2022/01/07 09:38:34;;;;;;;26.35;13.18;;;-1.00;99.90;;;;;;4982689;28;20457;-86
2022/01/07 09:41:00;;;;;;;32.15;13.43;;;-1.00;99.90;;;;;;4984876;28;20042;-86
2022/01/07 09:43:26;;;;;;;31.00;13.63;;;-1.10;99.90;;;;;;4982334;28;20034;-86
2022/01/07 09:45:52;;;;;;;33.50;14.82;;;-1.10;99.90;;;;;;4998986;28;20105;-85
2022/01/07 09:48:18;;;;;;;29.05;13.55;;;-1.00;99.90;;;;;;4998543;28;20111;-86
2022/01/07 09:50:45;;;;;;;27.95;14.35;;;-1.00;99.90;;;;;;4982464;28;20340;-86
2022/01/07 09:53:13;;;;;;;29.75;14.65;;;-1.00;99.90;;;;;;4985740;28;20045;-86
2022/01/07 09:55:39;;;;;;;30.60;14.82;;;-1.20;99.90;;;;;;4981842;28;20037;-86
2022/01/07 09:58:07;;;;;;;28.50;14.70;;;-1.20;99.90;;;;;;4981798;28;20041;-85
2022/01/07 10:00:44;;;;;;;39.67;14.30;;;-1.10;99.90;;;;;;5000120;28;20112;-86
2022/01/07 10:03:12;;;;;;;21.00;12.70;;;-1.10;99.90;;;;;;4998502;28;20022;-86
2022/01/07 10:05:49;;;;;;;25.55;14.18;;;-1.00;99.90;;;;;;4998368;28;20481;-86
2022/01/07 10:08:22;;;;;;;29.05;14.45;;;-0.90;99.90;;;;;;4981852;28;20029;-85
2022/01/07 10:11:14;;;;;;;26.33;14.90;;;-0.80;99.90;;;;;;4981995;28;20033;-87
2022/01/07 10:13:47;;;;;;;30.40;15.35;;;-0.70;99.90;;;;;;4981664;28;20034;-87
2022/01/07 10:16:21;;;;;;;23.02;12.93;;;-0.50;99.90;;;;;;4981639;28;20129;-87
2022/01/07 10:18:48;;;;;;;28.00;13.48;;;-0.60;99.90;;;;;;4982122;28;20113;-87
2022/01/07 10:21:16;;;;;;;20.92;12.00;;;-0.60;99.90;;;;;;4981652;28;20026;-86
2022/01/07 10:23:45;;;;;;;21.90;11.73;;;-0.60;99.90;;;;;;4999984;28;20042;-87
2022/01/07 10:26:13;;;;;;;22.65;13.50;;;-0.60;99.90;;;;;;5015251;28;20385;-87
2022/01/07 10:28:39;;;;;;;27.60;12.40;;;-0.60;99.90;;;;;;4981610;28;20041;-87
2022/01/07 10:31:07;;;;;;;19.63;11.27;;;-0.50;99.90;;;;;;5015676;28;20470;-86
2022/01/07 10:33:37;;;;;;;18.52;11.15;;;-0.50;99.90;;;;;;4997429;28;20032;-87
2022/01/07 10:36:06;;;;;;;18.27;10.77;;;-0.40;99.90;;;;;;4981345;28;20536;-87
2022/01/07 10:38:33;;;;;;;16.27;9.70;;;-0.40;99.90;;;;;;4981645;28;20026;-84
2022/01/07 10:40:59;;;;;;;17.50;9.25;;;-0.30;99.90;;;;;;5014840;28;20037;-84
2022/01/07 10:43:34;;;;;;;20.05;9.65;;;-0.40;99.90;;;;;;4980800;28;20030;-87
2022/01/07 10:46:01;;;;;;;18.75;9.15;;;-0.40;99.90;;;;;;5030604;28;20125;-86
2022/01/07 10:48:39;;;;;;;19.92;11.07;;;-0.40;99.90;;;;;;4998388;28;20030;-85
2022/01/07 10:51:08;;;;;;;18.38;10.15;;;-0.30;99.90;;;;;;4981929;28;20037;-87
2022/01/07 10:53:34;;;;;;;20.55;10.52;;;-0.30;99.90;;;;;;4981850;28;20038;-87
2022/01/07 10:56:12;;;;;;;15.70;9.50;;;-0.20;99.90;;;;;;4981333;28;20396;-85
2022/01/07 10:58:46;;;;;;;14.25;8.80;;;-0.10;99.90;;;;;;4982038;28;20504;-86
2022/01/07 11:01:21;;;;;;;22.85;10.25;;;0.00;99.90;;;;;;4997667;28;20022;-86
2022/01/07 11:03:52;;;;;;;18.15;9.57;;;0.00;99.90;;;;;;4981040;28;20432;-86
2022/01/07 11:06:19;;;;;;;16.83;9.30;;;0.00;99.90;;;;;;4982811;28;20058;-86
2022/01/07 11:08:48;;;;;;;13.45;8.52;;;0.00;99.90;;;;;;4982920;28;20125;-86
2022/01/07 11:11:15;;;;;;;18.45;10.18;;;0.00;99.90;;;;;;4980939;28;20029;-86
2022/01/07 11:13:42;;;;;;;22.00;10.27;;;0.10;99.90;;;;;;4997088;28;20037;-86
2022/01/07 11:16:08;;;;;;;16.70;9.00;;;0.00;99.90;;;;;;4996688;28;20116;-85
2022/01/07 11:18:37;;;;;;;18.95;10.27;;;0.10;99.90;;;;;;4982506;28;20480;-86
2022/01/07 11:21:04;;;;;;;20.83;10.02;;;-0.10;99.90;;;;;;4982470;28;20445;-86
2022/01/07 11:23:32;;;;;;;19.52;10.35;;;-0.10;99.90;;;;;;4980462;28;20030;-85
2022/01/07 11:26:03;;;;;;;24.88;9.77;;;-0.10;99.90;;;;;;4996666;28;20034;-86
2022/01/07 11:28:29;;;;;;;74.03;12.82;;;-0.20;99.90;;;;;;4996626;28;20044;-86
2022/01/07 11:31:15;;;;;;;71.32;14.70;;;-0.30;99.90;;;;;;4980880;28;20034;-86
2022/01/07 11:33:41;;;;;;;105.47;14.43;;;-0.40;99.90;;;;;;4996377;28;20092;-86
2022/01/07 11:36:12;;;;;;;102.13;17.83;;;-0.40;99.90;;;;;;4996825;28;20034;-86
2022/01/07 11:38:39;;;;;;;192.02;19.85;;;-0.50;99.90;;;;;;4980369;28;20030;-86
2022/01/07 11:41:09;;;;;;;90.28;14.80;;;-0.50;99.90;;;;;;4980199;28;20153;-86
2022/01/07 11:43:41;;;;;;;147.68;17.92;;;-0.40;99.90;;;;;;4980377;28;20037;-86
2022/01/07 11:46:25;;;;;;;185.07;19.60;;;-0.40;99.90;;;;;;4996521;28;20128;-86
2022/01/07 11:48:54;;;;;;;66.32;15.85;;;-0.40;99.90;;;;;;4980339;28;20079;-86
2022/01/07 11:51:20;;;;;;;186.50;19.77;;;-0.30;99.90;;;;;;4979823;28;20180;-86
2022/01/07 11:53:49;;;;;;;459.23;39.17;;;-0.20;99.90;;;;;;4980090;28;20545;-86
2022/01/07 11:56:18;;;;;;;297.75;29.63;;;-0.20;99.90;;;;;;4996149;28;20088;-86
2022/01/07 11:58:51;;;;;;;347.58;28.02;;;-0.20;99.90;;;;;;4996125;28;20555;-86
2022/01/07 12:01:29;;;;;;;128.38;17.50;;;-0.20;99.90;;;;;;4996225;28;20033;-86
2022/01/07 12:04:00;;;;;;;88.45;17.00;;;-0.20;99.90;;;;;;4996158;28;20045;-86
2022/01/07 12:06:26;;;;;;;30.60;14.27;;;-0.20;99.90;;;;;;4980080;28;20042;-86
2022/01/07 12:09:03;;;;;;;32.97;12.68;;;-0.20;99.90;;;;;;5013597;28;20052;-86
2022/01/07 12:11:41;;;;;;;23.33;12.43;;;-0.20;99.90;;;;;;4980093;28;20184;-86
2022/01/07 12:14:15;;;;;;;21.40;11.93;;;-0.10;99.90;;;;;;4996116;28;20482;-86
2022/01/07 12:16:52;;;;;;;21.92;12.27;;;-0.10;99.90;;;;;;4980189;28;20175;-86
2022/01/07 12:19:18;;;;;;;21.92;12.15;;;-0.20;99.90;;;;;;4983600;28;20127;-86
2022/01/07 12:22:16;;;;;;;26.77;14.00;;;-0.30;99.90;;;;;;4999935;28;20025;-87
2022/01/07 12:24:42;;;;;;;32.53;13.52;;;-0.20;99.90;;;;;;4983334;28;20060;-86
2022/01/07 12:27:23;;;;;;;29.02;15.48;;;-0.10;99.90;;;;;;4984029;28;20085;-87
2022/01/07 12:30:27;;;;;;;30.95;14.63;;;0.00;99.90;;;;;;4983985;28;20069;-86
2022/01/07 12:32:58;;;;;;;28.60;14.20;;;0.00;99.90;;;;;;5000287;28;20034;-87
2022/01/07 12:35:29;;;;;;;28.58;14.65;;;0.20;99.90;;;;;;4983875;28;20022;-86
2022/01/07 12:37:55;;;;;;;23.17;13.00;;;0.20;99.90;;;;;;4983921;28;20547;-87
2022/01/07 12:40:21;;;;;;;26.50;13.38;;;0.20;99.90;;;;;;4983853;28;20062;-87
2022/01/07 12:42:46;;;;;;;19.20;11.43;;;0.20;99.90;;;;;;4984417;28;20037;-86